sensor_id;sensor_type;location;lat;lon;timestamp;pressure;altitude;pressure_sealevel;temperature;humidity
51759;BME280;66684;47.568;18.734;2023-02-22T00:01:16;99482.97;;;8.70;97.09
51759;BME280;66684;47.568;18.734;2023-02-22T00:04:04;99485.38;;;8.67;96.89
51759;BME280;66684;47.568;18.734;2023-02-22T00:06:31;99479.56;;;8.71;96.95
51759;BME280;66684;47.568;18.734;2023-02-22T00:08:58;99477.66;;;8.67;97.28
51759;BME280;66684;47.568;18.734;2023-02-22T00:11:25;99477.66;;;8.67;97.39
51759;BME280;66684;47.568;18.734;2023-02-22T00:13:51;99484.38;;;8.63;97.72
51759;BME280;66684;47.568;18.734;2023-02-22T00:16:19;99485.78;;;8.56;98.97
51759;BME280;66684;47.568;18.734;2023-02-22T00:18:46;99476.44;;;8.41;100.00
51759;BME280;66684;47.568;18.734;2023-02-22T00:21:14;99473.16;;;8.43;100.00
51759;BME280;66684;47.568;18.734;2023-02-22T00:23:43;99479.19;;;8.44;100.00
51759;BME280;66684;47.568;18.734;2023-02-22T00:26:15;99475.44;;;8.37;100.00
51759;BME280;66684;47.568;18.734;2023-02-22T00:28:50;99480.28;;;8.31;100.00
51759;BME280;66684;47.568;18.734;2023-02-22T00:31:16;99479.00;;;8.23;100.00
51759;BME280;66684;47.568;18.734;2023-02-22T00:33:42;99472.34;;;8.44;100.00
51759;BME280;66684;47.568;18.734;2023-02-22T00:36:10;99476.31;;;8.55;100.00
51759;BME280;66684;47.568;18.734;2023-02-22T00:38:36;99480.75;;;8.59;99.84
51759;BME280;66684;47.568;18.734;2023-02-22T00:41:02;99474.91;;;8.44;100.00
51759;BME280;66684;47.568;18.734;2023-02-22T00:43:28;99477.44;;;8.43;100.00
51759;BME280;66684;47.568;18.734;2023-02-22T00:45:54;99475.56;;;8.40;100.00
51759;BME280;66684;47.568;18.734;2023-02-22T00:48:20;99469.47;;;8.38;100.00
51759;BME280;66684;47.568;18.734;2023-02-22T00:50:45;99482.66;;;8.44;100.00
51759;BME280;66684;47.568;18.734;2023-02-22T00:53:14;99476.69;;;8.45;100.00
51759;BME280;66684;47.568;18.734;2023-02-22T00:55:40;99479.91;;;8.41;100.00
51759;BME280;66684;47.568;18.734;2023-02-22T00:58:07;99478.72;;;8.34;100.00
51759;BME280;66684;47.568;18.734;2023-02-22T01:00:36;99473.81;;;8.39;100.00
51759;BME280;66684;47.568;18.734;2023-02-22T01:03:04;99471.25;;;8.39;100.00
51759;BME280;66684;47.568;18.734;2023-02-22T01:05:31;99474.03;;;8.26;100.00
51759;BME280;66684;47.568;18.734;2023-02-22T01:08:00;99471.19;;;8.37;100.00
51759;BME280;66684;47.568;18.734;2023-02-22T01:10:28;99475.81;;;8.45;100.00
51759;BME280;66684;47.568;18.734;2023-02-22T01:12:55;99465.63;;;8.30;100.00
51759;BME280;66684;47.568;18.734;2023-02-22T01:15:23;99468.00;;;8.43;100.00
51759;BME280;66684;47.568;18.734;2023-02-22T01:17:51;99464.12;;;8.35;100.00
51759;BME280;66684;47.568;18.734;2023-02-22T01:20:20;99459.19;;;8.38;100.00
51759;BME280;66684;47.568;18.734;2023-02-22T01:22:49;99460.69;;;8.52;100.00
51759;BME280;66684;47.568;18.734;2023-02-22T01:25:18;99467.47;;;8.50;100.00
51759;BME280;66684;47.568;18.734;2023-02-22T01:27:44;99461.81;;;8.40;100.00
51759;BME280;66684;47.568;18.734;2023-02-22T01:30:13;99456.22;;;8.30;100.00
51759;BME280;66684;47.568;18.734;2023-02-22T01:32:40;99456.94;;;8.28;100.00
51759;BME280;66684;47.568;18.734;2023-02-22T01:35:11;99451.38;;;8.19;100.00
51759;BME280;66684;47.568;18.734;2023-02-22T01:37:39;99453.88;;;8.17;100.00
51759;BME280;66684;47.568;18.734;2023-02-22T01:40:07;99452.97;;;8.17;100.00
51759;BME280;66684;47.568;18.734;2023-02-22T01:42:34;99460.56;;;8.14;100.00
51759;BME280;66684;47.568;18.734;2023-02-22T01:50:38;99462.09;;;8.10;100.00
51759;BME280;66684;47.568;18.734;2023-02-22T01:53:07;99457.53;;;8.04;100.00
51759;BME280;66684;47.568;18.734;2023-02-22T01:55:34;99461.50;;;7.98;100.00
51759;BME280;66684;47.568;18.734;2023-02-22T01:58:01;99450.50;;;8.00;100.00
51759;BME280;66684;47.568;18.734;2023-02-22T02:00:29;99461.13;;;7.90;100.00
51759;BME280;66684;47.568;18.734;2023-02-22T02:03:01;99457.28;;;7.98;100.00
51759;BME280;66684;47.568;18.734;2023-02-22T02:05:31;99452.53;;;7.90;100.00
51759;BME280;66684;47.568;18.734;2023-02-22T02:08:04;99455.69;;;7.84;100.00
51759;BME280;66684;47.568;18.734;2023-02-22T02:10:38;99458.56;;;7.90;100.00
51759;BME280;66684;47.568;18.734;2023-02-22T02:13:04;99460.31;;;7.91;100.00
51759;BME280;66684;47.568;18.734;2023-02-22T02:15:32;99452.53;;;7.90;100.00
51759;BME280;66684;47.568;18.734;2023-02-22T02:18:05;99460.03;;;7.85;100.00
51759;BME280;66684;47.568;18.734;2023-02-22T02:20:43;99455.56;;;7.81;100.00
51759;BME280;66684;47.568;18.734;2023-02-22T02:24:06;99447.78;;;7.79;100.00
51759;BME280;66684;47.568;18.734;2023-02-22T02:27:01;99450.94;;;7.74;100.00
51759;BME280;66684;47.568;18.734;2023-02-22T02:35:46;99449.59;;;7.82;100.00
51759;BME280;66684;47.568;18.734;2023-02-22T02:38:33;99448.16;;;7.87;100.00
51759;BME280;66684;47.568;18.734;2023-02-22T02:43:52;99455.69;;;7.84;100.00
51759;BME280;66684;47.568;18.734;2023-02-22T02:47:02;99453.00;;;7.81;100.00
51759;BME280;66684;47.568;18.734;2023-02-22T02:52:11;99455.53;;;7.63;100.00
51759;BME280;66684;47.568;18.734;2023-02-22T02:54:38;99454.53;;;7.43;100.00
51759;BME280;66684;47.568;18.734;2023-02-22T02:57:05;99460.66;;;7.29;100.00
51759;BME280;66684;47.568;18.734;2023-02-22T02:59:33;99445.09;;;7.26;100.00
51759;BME280;66684;47.568;18.734;2023-02-22T03:08:02;99454.59;;;7.11;100.00
51759;BME280;66684;47.568;18.734;2023-02-22T03:11:04;99454.28;;;7.05;100.00
51759;BME280;66684;47.568;18.734;2023-02-22T03:19:08;99460.53;;;6.61;100.00
51759;BME280;66684;47.568;18.734;2023-02-22T03:24:25;99455.53;;;6.64;100.00
51759;BME280;66684;47.568;18.734;2023-02-22T03:27:07;99458.09;;;6.64;100.00
51759;BME280;66684;47.568;18.734;2023-02-22T03:29:42;99464.28;;;6.67;100.00
51759;BME280;66684;47.568;18.734;2023-02-22T03:32:15;99456.50;;;6.66;100.00
51759;BME280;66684;47.568;18.734;2023-02-22T03:34:45;99469.31;;;6.66;100.00
51759;BME280;66684;47.568;18.734;2023-02-22T03:37:27;99472.56;;;6.62;100.00
51759;BME280;66684;47.568;18.734;2023-02-22T03:39:55;99475.44;;;6.68;100.00
51759;BME280;66684;47.568;18.734;2023-02-22T03:42:30;99474.66;;;6.69;100.00
51759;BME280;66684;47.568;18.734;2023-02-22T03:45:00;99469.19;;;6.63;100.00
51759;BME280;66684;47.568;18.734;2023-02-22T03:47:42;99472.38;;;6.59;100.00
51759;BME280;66684;47.568;18.734;2023-02-22T03:50:19;99482.09;;;6.64;100.00
51759;BME280;66684;47.568;18.734;2023-02-22T03:52:46;99474.09;;;6.74;100.00
51759;BME280;66684;47.568;18.734;2023-02-22T03:55:13;99476.72;;;6.76;100.00
51759;BME280;66684;47.568;18.734;2023-02-22T03:57:50;99485.72;;;6.84;100.00
51759;BME280;66684;47.568;18.734;2023-02-22T04:00:22;99479.16;;;6.89;100.00
51759;BME280;66684;47.568;18.734;2023-02-22T04:02:49;99483.06;;;6.83;100.00
51759;BME280;66684;47.568;18.734;2023-02-22T04:05:15;99483.91;;;6.51;100.00
51759;BME280;66684;47.568;18.734;2023-02-22T04:07:42;99495.41;;;6.57;100.00
51759;BME280;66684;47.568;18.734;2023-02-22T04:10:09;99485.44;;;6.01;100.00
51759;BME280;66684;47.568;18.734;2023-02-22T04:12:36;99480.69;;;5.92;100.00
51759;BME280;66684;47.568;18.734;2023-02-22T04:15:03;99485.63;;;6.04;100.00
51759;BME280;66684;47.568;18.734;2023-02-22T04:17:29;99482.87;;;5.86;100.00
51759;BME280;66684;47.568;18.734;2023-02-22T04:19:55;99489.31;;;5.80;100.00
51759;BME280;66684;47.568;18.734;2023-02-22T04:22:21;99488.38;;;5.92;100.00
51759;BME280;66684;47.568;18.734;2023-02-22T04:24:47;99490.50;;;6.00;100.00
51759;BME280;66684;47.568;18.734;2023-02-22T04:27:14;99493.91;;;6.15;100.00
51759;BME280;66684;47.568;18.734;2023-02-22T04:29:40;99495.16;;;6.07;100.00
51759;BME280;66684;47.568;18.734;2023-02-22T04:32:06;99482.75;;;6.14;100.00
51759;BME280;66684;47.568;18.734;2023-02-22T04:34:32;99495.12;;;6.21;100.00
51759;BME280;66684;47.568;18.734;2023-02-22T04:36:58;99485.00;;;5.93;100.00
51759;BME280;66684;47.568;18.734;2023-02-22T04:39:24;99497.47;;;6.17;100.00
51759;BME280;66684;47.568;18.734;2023-02-22T04:41:50;99501.00;;;6.19;100.00
51759;BME280;66684;47.568;18.734;2023-02-22T04:44:16;99495.84;;;6.19;100.00
51759;BME280;66684;47.568;18.734;2023-02-22T04:46:42;99493.44;;;6.22;100.00
51759;BME280;66684;47.568;18.734;2023-02-22T04:49:08;99497.00;;;6.24;100.00
51759;BME280;66684;47.568;18.734;2023-02-22T04:51:34;99494.97;;;6.18;100.00
51759;BME280;66684;47.568;18.734;2023-02-22T04:54:01;99498.19;;;6.00;100.00
51759;BME280;66684;47.568;18.734;2023-02-22T04:56:27;99501.16;;;5.63;100.00
51759;BME280;66684;47.568;18.734;2023-02-22T04:58:53;99491.88;;;5.65;100.00
51759;BME280;66684;47.568;18.734;2023-02-22T05:01:19;99495.50;;;5.68;100.00
51759;BME280;66684;47.568;18.734;2023-02-22T05:03:45;99496.31;;;5.67;100.00
51759;BME280;66684;47.568;18.734;2023-02-22T05:06:11;99493.56;;;5.79;100.00
51759;BME280;66684;47.568;18.734;2023-02-22T05:08:37;99494.66;;;5.98;100.00
51759;BME280;66684;47.568;18.734;2023-02-22T05:11:03;99505.63;;;6.10;100.00
51759;BME280;66684;47.568;18.734;2023-02-22T05:13:30;99493.44;;;6.22;100.00
51759;BME280;66684;47.568;18.734;2023-02-22T05:15:56;99489.31;;;6.24;100.00
51759;BME280;66684;47.568;18.734;2023-02-22T05:18:22;99498.37;;;6.34;100.00
51759;BME280;66684;47.568;18.734;2023-02-22T05:20:48;99502.97;;;6.39;100.00
51759;BME280;66684;47.568;18.734;2023-02-22T05:23:14;99503.44;;;6.32;100.00
51759;BME280;66684;47.568;18.734;2023-02-22T05:25:40;99500.59;;;6.28;100.00
51759;BME280;66684;47.568;18.734;2023-02-22T05:28:13;99494.78;;;6.30;100.00
51759;BME280;66684;47.568;18.734;2023-02-22T05:30:39;99498.50;;;6.35;100.00
51759;BME280;66684;47.568;18.734;2023-02-22T05:33:06;99500.25;;;6.36;100.00
51759;BME280;66684;47.568;18.734;2023-02-22T05:35:32;99503.97;;;6.41;100.00
51759;BME280;66684;47.568;18.734;2023-02-22T05:37:58;99511.13;;;6.32;100.00
51759;BME280;66684;47.568;18.734;2023-02-22T05:40:27;99507.72;;;6.17;100.00
51759;BME280;66684;47.568;18.734;2023-02-22T05:42:54;99522.22;;;6.16;100.00
51759;BME280;66684;47.568;18.734;2023-02-22T05:45:23;99517.81;;;5.99;100.00
51759;BME280;66684;47.568;18.734;2023-02-22T05:47:50;99519.13;;;6.07;100.00
51759;BME280;66684;47.568;18.734;2023-02-22T05:50:17;99523.13;;;6.17;100.00
51759;BME280;66684;47.568;18.734;2023-02-22T05:52:45;99522.94;;;6.29;100.00
51759;BME280;66684;47.568;18.734;2023-02-22T05:55:13;99533.69;;;6.38;100.00
51759;BME280;66684;47.568;18.734;2023-02-22T05:57:39;99526.78;;;6.37;100.00
51759;BME280;66684;47.568;18.734;2023-02-22T06:00:06;99535.84;;;6.30;100.00
51759;BME280;66684;47.568;18.734;2023-02-22T06:02:33;99534.75;;;6.41;100.00
51759;BME280;66684;47.568;18.734;2023-02-22T06:04:59;99540.38;;;6.51;100.00
51759;BME280;66684;47.568;18.734;2023-02-22T06:07:25;99533.75;;;6.54;100.00
51759;BME280;66684;47.568;18.734;2023-02-22T06:09:52;99539.84;;;6.56;100.00
51759;BME280;66684;47.568;18.734;2023-02-22T06:12:18;99547.81;;;6.61;100.00
51759;BME280;66684;47.568;18.734;2023-02-22T06:14:44;99552.06;;;6.60;100.00
51759;BME280;66684;47.568;18.734;2023-02-22T06:17:12;99546.00;;;6.60;100.00
51759;BME280;66684;47.568;18.734;2023-02-22T06:19:39;99555.03;;;6.68;100.00
51759;BME280;66684;47.568;18.734;2023-02-22T06:22:15;99552.13;;;6.62;100.00
51759;BME280;66684;47.568;18.734;2023-02-22T06:24:41;99564.25;;;6.64;100.00
51759;BME280;66684;47.568;18.734;2023-02-22T06:27:07;99558.69;;;6.57;100.00
51759;BME280;66684;47.568;18.734;2023-02-22T06:29:33;99560.09;;;6.66;100.00
51759;BME280;66684;47.568;18.734;2023-02-22T06:31:59;99563.88;;;6.73;100.00
51759;BME280;66684;47.568;18.734;2023-02-22T06:34:25;99562.44;;;6.78;100.00
51759;BME280;66684;47.568;18.734;2023-02-22T06:36:51;99566.13;;;6.83;100.00
51759;BME280;66684;47.568;18.734;2023-02-22T06:39:17;99566.47;;;6.89;100.00
51759;BME280;66684;47.568;18.734;2023-02-22T06:41:45;99566.66;;;6.92;100.00
51759;BME280;66684;47.568;18.734;2023-02-22T06:44:13;99568.56;;;6.96;100.00
51759;BME280;66684;47.568;18.734;2023-02-22T06:46:47;99567.13;;;7.01;100.00
51759;BME280;66684;47.568;18.734;2023-02-22T06:49:14;99570.84;;;7.07;100.00
51759;BME280;66684;47.568;18.734;2023-02-22T06:51:40;99577.91;;;7.11;100.00
51759;BME280;66684;47.568;18.734;2023-02-22T06:54:06;99576.78;;;7.22;100.00
51759;BME280;66684;47.568;18.734;2023-02-22T06:56:32;99574.47;;;7.26;100.00
51759;BME280;66684;47.568;18.734;2023-02-22T06:58:58;99572.16;;;7.31;100.00
51759;BME280;66684;47.568;18.734;2023-02-22T07:01:24;99572.53;;;7.22;100.00
51759;BME280;66684;47.568;18.734;2023-02-22T07:03:49;99567.00;;;7.31;100.00
51759;BME280;66684;47.568;18.734;2023-02-22T07:06:16;99579.06;;;7.48;100.00
51759;BME280;66684;47.568;18.734;2023-02-22T07:08:41;99574.06;;;7.68;100.00
51759;BME280;66684;47.568;18.734;2023-02-22T07:11:07;99578.78;;;7.76;100.00
51759;BME280;66684;47.568;18.734;2023-02-22T07:13:33;99575.06;;;7.88;100.00
51759;BME280;66684;47.568;18.734;2023-02-22T07:15:59;99573.25;;;8.03;100.00
51759;BME280;66684;47.568;18.734;2023-02-22T07:18:25;99578.00;;;8.11;100.00
51759;BME280;66684;47.568;18.734;2023-02-22T07:20:51;99576.81;;;8.23;100.00
51759;BME280;66684;47.568;18.734;2023-02-22T07:23:17;99581.13;;;8.40;100.00
51759;BME280;66684;47.568;18.734;2023-02-22T07:25:43;99577.16;;;8.47;100.00
51759;BME280;66684;47.568;18.734;2023-02-22T07:28:09;99575.63;;;8.50;100.00
51759;BME280;66684;47.568;18.734;2023-02-22T07:30:38;99579.50;;;8.60;100.00
51759;BME280;66684;47.568;18.734;2023-02-22T07:33:09;99575.81;;;8.73;100.00
51759;BME280;66684;47.568;18.734;2023-02-22T07:35:38;99580.03;;;8.71;100.00
51759;BME280;66684;47.568;18.734;2023-02-22T07:38:06;99584.06;;;8.83;100.00
51759;BME280;66684;47.568;18.734;2023-02-22T07:40:36;99576.56;;;8.88;100.00
51759;BME280;66684;47.568;18.734;2023-02-22T07:43:12;99577.25;;;9.03;100.00
51759;BME280;66684;47.568;18.734;2023-02-22T07:45:38;99581.41;;;9.00;100.00
51759;BME280;66684;47.568;18.734;2023-02-22T07:48:05;99581.34;;;9.17;100.00
51759;BME280;66684;47.568;18.734;2023-02-22T07:50:32;99576.34;;;9.21;100.00
51759;BME280;66684;47.568;18.734;2023-02-22T07:53:00;99576.34;;;9.40;100.00
51759;BME280;66684;47.568;18.734;2023-02-22T07:55:28;99577.00;;;9.36;100.00
51759;BME280;66684;47.568;18.734;2023-02-22T07:57:57;99576.75;;;9.30;100.00
51759;BME280;66684;47.568;18.734;2023-02-22T08:00:30;99576.47;;;9.24;100.00
51759;BME280;66684;47.568;18.734;2023-02-22T08:02:59;99573.00;;;9.42;100.00
51759;BME280;66684;47.568;18.734;2023-02-22T08:05:27;99582.00;;;9.51;100.00
51759;BME280;66684;47.568;18.734;2023-02-22T08:07:54;99581.78;;;9.65;100.00
51759;BME280;66684;47.568;18.734;2023-02-22T08:10:21;99574.72;;;9.81;100.00
51759;BME280;66684;47.568;18.734;2023-02-22T08:12:48;99584.34;;;9.85;100.00
51759;BME280;66684;47.568;18.734;2023-02-22T08:15:18;99583.09;;;9.96;100.00
51759;BME280;66684;47.568;18.734;2023-02-22T08:17:44;99579.03;;;10.01;100.00
51759;BME280;66684;47.568;18.734;2023-02-22T08:20:10;99583.94;;;10.16;100.00
51759;BME280;66684;47.568;18.734;2023-02-22T08:22:36;99576.56;;;10.04;100.00
51759;BME280;66684;47.568;18.734;2023-02-22T08:25:02;99579.28;;;10.07;100.00
51759;BME280;66684;47.568;18.734;2023-02-22T08:27:29;99577.16;;;9.98;100.00
51759;BME280;66684;47.568;18.734;2023-02-22T08:29:56;99579.31;;;9.88;100.00
51759;BME280;66684;47.568;18.734;2023-02-22T08:32:22;99575.78;;;9.86;100.00
51759;BME280;66684;47.568;18.734;2023-02-22T08:34:48;99581.44;;;9.98;100.00
51759;BME280;66684;47.568;18.734;2023-02-22T08:37:15;99579.66;;;10.16;100.00
51759;BME280;66684;47.568;18.734;2023-02-22T08:39:41;99581.09;;;10.10;100.00
51759;BME280;66684;47.568;18.734;2023-02-22T08:42:07;99586.66;;;10.19;100.00
51759;BME280;66684;47.568;18.734;2023-02-22T08:44:35;99580.59;;;10.38;100.00
51759;BME280;66684;47.568;18.734;2023-02-22T08:47:01;99573.44;;;10.53;100.00
51759;BME280;66684;47.568;18.734;2023-02-22T08:49:27;99579.59;;;10.77;99.79
51759;BME280;66684;47.568;18.734;2023-02-22T08:51:53;99575.88;;;10.93;95.90
51759;BME280;66684;47.568;18.734;2023-02-22T08:54:19;99577.22;;;11.06;97.12
51759;BME280;66684;47.568;18.734;2023-02-22T08:56:45;99579.72;;;11.25;93.74
51759;BME280;66684;47.568;18.734;2023-02-22T08:59:10;99574.19;;;11.16;93.55
51759;BME280;66684;47.568;18.734;2023-02-22T09:01:36;99579.66;;;11.01;94.87
51759;BME280;66684;47.568;18.734;2023-02-22T09:04:02;99577.13;;;11.25;92.70
51759;BME280;66684;47.568;18.734;2023-02-22T09:06:28;99576.16;;;11.23;94.36
51759;BME280;66684;47.568;18.734;2023-02-22T09:08:54;99575.88;;;11.38;94.31
51759;BME280;66684;47.568;18.734;2023-02-22T09:11:20;99575.88;;;11.38;94.54
51759;BME280;66684;47.568;18.734;2023-02-22T09:13:46;99563.75;;;11.61;90.78
51759;BME280;66684;47.568;18.734;2023-02-22T09:16:12;99571.12;;;11.26;95.97
51759;BME280;66684;47.568;18.734;2023-02-22T09:18:38;99572.50;;;11.18;97.35
51759;BME280;66684;47.568;18.734;2023-02-22T09:21:04;99573.63;;;11.25;96.34
51759;BME280;66684;47.568;18.734;2023-02-22T09:23:30;99573.00;;;11.08;96.42
51759;BME280;66684;47.568;18.734;2023-02-22T09:25:56;99571.72;;;11.19;97.34
51759;BME280;66684;47.568;18.734;2023-02-22T09:28:25;99573.56;;;11.23;94.79
51759;BME280;66684;47.568;18.734;2023-02-22T09:30:51;99572.59;;;11.20;94.96
51759;BME280;66684;47.568;18.734;2023-02-22T09:33:19;99572.75;;;11.24;94.99
51759;BME280;66684;47.568;18.734;2023-02-22T09:35:47;99573.84;;;11.31;94.06
51759;BME280;66684;47.568;18.734;2023-02-22T09:38:17;99574.31;;;11.19;94.19
51759;BME280;66684;47.568;18.734;2023-02-22T09:40:48;99573.19;;;11.13;93.88
51759;BME280;66684;47.568;18.734;2023-02-22T09:43:36;99569.41;;;11.04;94.86
51759;BME280;66684;47.568;18.734;2023-02-22T09:48:47;99578.75;;;11.23;93.34
51759;BME280;66684;47.568;18.734;2023-02-22T09:51:17;99568.91;;;11.13;92.65
51759;BME280;66684;47.568;18.734;2023-02-22T09:53:46;99570.78;;;11.41;91.69
51759;BME280;66684;47.568;18.734;2023-02-22T09:56:17;99570.00;;;11.44;92.08
51759;BME280;66684;47.568;18.734;2023-02-22T09:58:49;99572.66;;;11.21;94.45
51759;BME280;66684;47.568;18.734;2023-02-22T10:07:27;99555.38;;;11.20;92.94
51759;BME280;66684;47.568;18.734;2023-02-22T10:09:54;99566.13;;;11.08;93.47
51759;BME280;66684;47.568;18.734;2023-02-22T10:15:27;99559.75;;;11.23;93.18
51759;BME280;66684;47.568;18.734;2023-02-22T10:17:59;99557.50;;;11.08;93.60
51759;BME280;66684;47.568;18.734;2023-02-22T10:20:37;99555.41;;;11.22;93.37
51759;BME280;66684;47.568;18.734;2023-02-22T10:23:24;99552.09;;;11.02;94.23
51759;BME280;66684;47.568;18.734;2023-02-22T10:26:01;99556.47;;;11.27;93.12
51759;BME280;66684;47.568;18.734;2023-02-22T10:28:40;99558.13;;;11.49;93.31
51759;BME280;66684;47.568;18.734;2023-02-22T10:31:22;99555.88;;;11.58;92.02
51759;BME280;66684;47.568;18.734;2023-02-22T10:33:55;99558.63;;;11.39;91.20
51759;BME280;66684;47.568;18.734;2023-02-22T10:36:23;99550.44;;;11.26;89.97
51759;BME280;66684;47.568;18.734;2023-02-22T10:38:54;99551.69;;;11.38;89.74
51759;BME280;66684;47.568;18.734;2023-02-22T10:41:31;99548.00;;;11.55;88.95
51759;BME280;66684;47.568;18.734;2023-02-22T10:43:58;99545.66;;;11.62;89.13
51759;BME280;66684;47.568;18.734;2023-02-22T10:46:26;99542.16;;;11.37;90.31
51759;BME280;66684;47.568;18.734;2023-02-22T10:48:55;99547.56;;;11.43;90.55
51759;BME280;66684;47.568;18.734;2023-02-22T10:51:24;99544.25;;;11.47;90.79
51759;BME280;66684;47.568;18.734;2023-02-22T10:53:58;99537.38;;;11.47;88.73
51759;BME280;66684;47.568;18.734;2023-02-22T10:56:31;99533.22;;;11.51;88.23
51759;BME280;66684;47.568;18.734;2023-02-22T10:58:58;99532.53;;;11.32;87.23
51759;BME280;66684;47.568;18.734;2023-02-22T11:06:23;99529.13;;;11.57;88.59
51759;BME280;66684;47.568;18.734;2023-02-22T11:08:49;99526.63;;;11.84;84.45
51759;BME280;66684;47.568;18.734;2023-02-22T11:11:24;99526.06;;;11.93;85.46
51759;BME280;66684;47.568;18.734;2023-02-22T11:13:54;99527.25;;;11.53;81.09
51759;BME280;66684;47.568;18.734;2023-02-22T11:19:02;99516.38;;;11.87;81.09
51759;BME280;66684;47.568;18.734;2023-02-22T11:21:30;99517.06;;;11.82;81.48
51759;BME280;66684;47.568;18.734;2023-02-22T11:24:09;99508.78;;;11.68;81.37
51759;BME280;66684;47.568;18.734;2023-02-22T11:27:18;99503.03;;;12.01;81.12
51759;BME280;66684;47.568;18.734;2023-02-22T11:29:36;99511.34;;;12.18;81.27
51759;BME280;66684;47.568;18.734;2023-02-22T11:32:13;99505.00;;;12.35;78.78
51759;BME280;66684;47.568;18.734;2023-02-22T11:34:41;99506.25;;;12.48;77.91
51759;BME280;66684;47.568;18.734;2023-02-22T11:37:30;99502.34;;;12.33;79.75
51759;BME280;66684;47.568;18.734;2023-02-22T11:40:18;99501.53;;;12.34;77.63
51759;BME280;66684;47.568;18.734;2023-02-22T11:42:48;99495.22;;;12.26;79.94
51759;BME280;66684;47.568;18.734;2023-02-22T11:45:18;99500.41;;;12.26;80.32
51759;BME280;66684;47.568;18.734;2023-02-22T11:47:58;99494.91;;;12.17;78.83
51759;BME280;66684;47.568;18.734;2023-02-22T11:50:33;99500.28;;;12.50;77.25
51759;BME280;66684;47.568;18.734;2023-02-22T11:53:31;99493.62;;;12.58;73.65
51759;BME280;66684;47.568;18.734;2023-02-22T11:56:14;99498.06;;;12.34;75.69
51759;BME280;66684;47.568;18.734;2023-02-22T11:58:47;99497.37;;;12.39;74.95
51759;BME280;66684;47.568;18.734;2023-02-22T12:09:19;99493.22;;;12.45;74.50
51759;BME280;66684;47.568;18.734;2023-02-22T12:19:52;99483.41;;;12.07;76.36
51759;BME280;66684;47.568;18.734;2023-02-22T12:22:45;99479.28;;;12.14;75.64
51759;BME280;66684;47.568;18.734;2023-02-22T12:25:16;99478.53;;;12.18;75.05
51759;BME280;66684;47.568;18.734;2023-02-22T12:27:46;99486.16;;;12.40;74.04
51759;BME280;66684;47.568;18.734;2023-02-22T12:30:25;99472.84;;;12.57;74.70
51759;BME280;66684;47.568;18.734;2023-02-22T12:32:56;99480.25;;;12.45;74.91
51759;BME280;66684;47.568;18.734;2023-02-22T12:35:33;99475.22;;;12.51;74.21
51759;BME280;66684;47.568;18.734;2023-02-22T12:41:48;99476.72;;;12.42;75.99
51759;BME280;66684;47.568;18.734;2023-02-22T12:44:44;99475.22;;;12.51;74.46
51759;BME280;66684;47.568;18.734;2023-02-22T12:46:51;99459.53;;;12.45;74.79
51759;BME280;66684;47.568;18.734;2023-02-22T12:55:13;99468.63;;;12.05;75.82
51759;BME280;66684;47.568;18.734;2023-02-22T12:58:05;99464.12;;;12.26;72.22
51759;BME280;66684;47.568;18.734;2023-02-22T13:00:45;99462.28;;;12.22;73.21
51759;BME280;66684;47.568;18.734;2023-02-22T13:05:48;99460.22;;;12.12;73.05
51759;BME280;66684;47.568;18.734;2023-02-22T13:14:01;99453.56;;;11.93;72.96
51759;BME280;66684;47.568;18.734;2023-02-22T13:16:55;99450.41;;;12.02;69.84
51759;BME280;66684;47.568;18.734;2023-02-22T13:22:18;99447.63;;;11.96;72.13
51759;BME280;66684;47.568;18.734;2023-02-22T13:25:00;99452.16;;;12.03;69.31
51759;BME280;66684;47.568;18.734;2023-02-22T13:27:38;99457.16;;;12.25;64.64
51759;BME280;66684;47.568;18.734;2023-02-22T13:30:13;99454.84;;;12.06;67.33
51759;BME280;66684;47.568;18.734;2023-02-22T13:32:53;99453.19;;;12.08;68.14
51759;BME280;66684;47.568;18.734;2023-02-22T13:50:14;99457.03;;;11.94;69.76
51759;BME280;66684;47.568;18.734;2023-02-22T13:52:40;99450.22;;;11.96;70.58
51759;BME280;66684;47.568;18.734;2023-02-22T13:55:14;99448.69;;;12.02;71.40
51759;BME280;66684;47.568;18.734;2023-02-22T13:57:44;99451.91;;;12.22;70.61
51759;BME280;66684;47.568;18.734;2023-02-22T14:16:32;99448.38;;;11.93;70.69
51759;BME280;66684;47.568;18.734;2023-02-22T14:21:57;99447.03;;;12.04;69.53
51759;BME280;66684;47.568;18.734;2023-02-22T14:24:43;99446.06;;;12.01;69.71
51759;BME280;66684;47.568;18.734;2023-02-22T14:27:10;99445.53;;;11.85;71.60
51759;BME280;66684;47.568;18.734;2023-02-22T14:29:36;99443.56;;;11.78;70.26
51759;BME280;66684;47.568;18.734;2023-02-22T14:32:08;99437.78;;;11.85;72.17
51759;BME280;66684;47.568;18.734;2023-02-22T14:37:18;99433.97;;;12.28;69.45
51759;BME280;66684;47.568;18.734;2023-02-22T14:39:48;99445.84;;;12.22;70.34
51759;BME280;66684;47.568;18.734;2023-02-22T14:42:32;99441.88;;;12.06;70.61
51759;BME280;66684;47.568;18.734;2023-02-22T14:45:09;99444.47;;;12.06;72.25
51759;BME280;66684;47.568;18.734;2023-02-22T14:47:50;99440.72;;;12.23;69.02
51759;BME280;66684;47.568;18.734;2023-02-22T14:50:50;99431.25;;;12.25;69.83
51759;BME280;66684;47.568;18.734;2023-02-22T14:53:23;99441.44;;;12.19;69.02
51759;BME280;66684;47.568;18.734;2023-02-22T14:56:00;99431.56;;;12.34;68.54
51759;BME280;66684;47.568;18.734;2023-02-22T14:59:19;99433.97;;;12.28;68.97
51759;BME280;66684;47.568;18.734;2023-02-22T15:01:39;99426.81;;;12.20;69.41
51759;BME280;66684;47.568;18.734;2023-02-22T15:04:23;99436.19;;;12.16;70.25
51759;BME280;66684;47.568;18.734;2023-02-22T15:06:57;99437.06;;;12.17;69.95
51759;BME280;66684;47.568;18.734;2023-02-22T15:09:30;99434.31;;;12.12;70.71
51759;BME280;66684;47.568;18.734;2023-02-22T15:14:29;99429.06;;;12.09;70.70